Hovedside
METAR-TAF:

METAR-TAF

Lufthavner :

Sundsvall Timrå lufthavn

Sundsvall-Härnösand, Sverige

breddegrad: 62-32N, lengdegrad: 017-27E, høyde over havet: 4 m

Gjeldene værobservasjon

Denne rapporten ble laget for 38 minutter siden, klokken 01:20 UTC
Vind 3 kt fra Nordvest
Temperatur -5°C
Luftfuktighet 79%
Trykk 997 hPa
Sikt 10 km eller mer

METAR: ESNN 290120Z AUTO 31003KT 9999 OVC037/// M05/M08 Q0997

Tid: 02:58 (01:58 UTC)

Varsel

Denne rapporten ble laget for 11 timer og 28 minutter siden, klokken 14:30 UTC
Varsel gyldig fra 28. klokken 15 UTC til 28. klokken 19 UTC
Vind 9 kt fra Sør-sørøst
Sikt 10 km eller mer
ingen skyer under 1500 m og ingen bygeskyer

TAF: ESNN 281430Z 2815/2819 15009KT CAVOK

Værobservasjoner og værvarsel for over 4000 flyplasser (METAR- og TAF-rapporter).

Tilgjengelige stasjoner er representert av de røde og gule prikkene på kartet.

Hold musepekeren over prikken for å se navnet på stasjonen.

Klikk så for å se værobservasjoner og -varsler.

For å forandre kartet kan du klikke på den grønne knappen med svart kryss for å zoome inn, på den grønne knappen med strek for å zoome ut, eller på de grønne pilene for å se tilstøtende kart.


METAR-TAF: